createdAt,value
2019-04-07T00:02:03.715Z,99146.45
2019-04-07T00:04:31.099Z,99153.81
2019-04-07T00:06:58.808Z,99152.12
2019-04-07T00:09:26.263Z,99153.15
2019-04-07T00:11:53.605Z,99150.69
2019-04-07T00:14:20.955Z,99153.19
2019-04-07T00:16:48.376Z,99150.18
2019-04-07T00:19:15.718Z,99155.91
2019-04-07T00:21:43.023Z,99151.84
2019-04-07T00:24:10.605Z,99152.88
2019-04-07T00:26:38.064Z,99153.35
2019-04-07T00:29:05.325Z,99158.23
2019-04-07T00:31:32.610Z,99157.92
2019-04-07T00:34:00.429Z,99162.83
2019-04-07T00:36:27.967Z,99159.23
2019-04-07T00:38:55.225Z,99159.55
2019-04-07T00:41:22.377Z,99156.23
2019-04-07T00:43:49.669Z,99165.69
2019-04-07T00:46:16.835Z,99166.02
2019-04-07T00:48:44.120Z,99163.02
2019-04-07T00:51:11.562Z,99168.69
2019-04-07T00:53:39.357Z,99165.42
2019-04-07T00:56:06.709Z,99164.09
2019-04-07T00:58:34.351Z,99163.59
2019-04-07T01:01:01.759Z,99164.41
2019-04-07T01:03:29.119Z,99160.23
2019-04-07T01:05:56.668Z,99160.82
2019-04-07T01:08:23.813Z,99164.59
2019-04-07T01:10:50.993Z,99162.14
2019-04-07T01:13:18.415Z,99167.28
2019-04-07T01:15:46.028Z,99169.83
2019-04-07T01:18:13.431Z,99162.41
2019-04-07T01:20:40.612Z,99168.70
2019-04-07T01:23:08.127Z,99166.18
2019-04-07T01:25:35.746Z,99172.19
2019-04-07T01:28:03.401Z,99174.09
2019-04-07T01:30:30.596Z,99178.77
2019-04-07T01:32:57.753Z,99169.19
2019-04-07T01:35:25.582Z,99175.73
2019-04-07T01:37:52.855Z,99177.54
2019-04-07T01:40:20.029Z,99178.14
2019-04-07T01:42:57.726Z,99178.41
2019-04-07T01:45:53.481Z,99181.03
2019-04-07T01:48:29.289Z,99181.02
2019-04-07T01:51:04.513Z,99175.52
2019-04-07T01:53:55.345Z,99170.93
2019-04-07T01:56:46.456Z,99173.94
2019-04-07T01:59:51.943Z,99173.38
2019-04-07T02:02:29.474Z,99174.98
2019-04-07T02:05:05.555Z,99177.09
2019-04-07T02:07:40.360Z,99186.14
2019-04-07T02:10:24.145Z,99181.23
2019-04-07T02:13:09.854Z,99183.16
2019-04-07T02:15:56.920Z,99177.16
2019-04-07T02:18:32.056Z,99182.81
2019-04-07T02:21:03.645Z,99191.27
2019-04-07T02:23:42.070Z,99180.08
2019-04-07T02:26:15.611Z,99177.23
2019-04-07T02:29:01.944Z,99175.00
2019-04-07T02:31:54.729Z,99176.91
2019-04-07T02:34:27.828Z,99183.30
2019-04-07T02:37:03.034Z,99177.83
2019-04-07T02:39:39.427Z,99181.53
2019-04-07T02:42:21.534Z,99183.50
2019-04-07T02:45:00.158Z,99177.09
2019-04-07T02:47:50.050Z,99176.28
2019-04-07T02:50:24.524Z,99170.78
2019-04-07T02:53:14.838Z,99171.05
2019-04-07T02:56:20.802Z,99175.96
2019-04-07T02:58:54.938Z,99177.12
2019-04-07T03:01:41.425Z,99178.05
2019-04-07T03:04:29.280Z,99177.66
2019-04-07T03:07:04.932Z,99184.25
2019-04-07T03:09:54.824Z,99181.94
2019-04-07T03:12:39.371Z,99183.91
2019-04-07T03:15:20.459Z,99190.50
2019-04-07T03:18:07.359Z,99194.13
2019-04-07T03:20:54.374Z,99188.95
2019-04-07T03:23:40.302Z,99190.18
2019-04-07T03:26:32.127Z,99195.00
2019-04-07T03:29:23.629Z,99195.80
2019-04-07T03:32:30.539Z,99196.45
2019-04-07T03:35:20.945Z,99198.70
2019-04-07T03:38:07.605Z,99195.66
2019-04-07T03:40:55.020Z,99195.61
2019-04-07T03:43:46.351Z,99197.36
2019-04-07T03:46:32.605Z,99199.83
2019-04-07T03:49:06.128Z,99199.00
2019-04-07T03:51:37.917Z,99200.55
2019-04-07T03:54:15.430Z,99189.12
2019-04-07T03:57:02.993Z,99197.05
2019-04-07T03:59:47.853Z,99196.88
2019-04-07T04:02:44.338Z,99197.08
2019-04-07T04:05:41.359Z,99203.27
2019-04-07T04:08:24.523Z,99203.80
2019-04-07T04:11:11.728Z,99201.70
2019-04-07T04:13:58.600Z,99199.90
2019-04-07T04:16:34.113Z,99200.16
2019-04-07T04:19:02.453Z,99206.14
2019-04-07T04:21:30.744Z,99203.91
2019-04-07T04:23:58.926Z,99205.50
2019-04-07T04:26:26.903Z,99200.77
2019-04-07T04:28:54.187Z,99207.31
2019-04-07T04:31:21.832Z,99208.70
2019-04-07T04:33:49.005Z,99214.38
2019-04-07T04:36:16.154Z,99212.08
2019-04-07T04:38:44.037Z,99208.87
2019-04-07T04:41:11.350Z,99211.56
2019-04-07T04:43:39.264Z,99211.77
2019-04-07T04:46:09.559Z,99212.21
2019-04-07T04:48:35.705Z,99217.99
2019-04-07T04:51:03.499Z,99223.91
2019-04-07T04:53:30.897Z,99218.91
2019-04-07T04:55:58.993Z,99227.62
2019-04-07T04:58:27.051Z,99218.05
2019-04-07T05:00:54.478Z,99218.50
2019-04-07T05:03:21.662Z,99227.14
2019-04-07T05:05:48.789Z,99223.66
2019-04-07T05:08:16.227Z,99229.10
2019-04-07T05:10:43.996Z,99233.17
2019-04-07T05:13:11.245Z,99238.30
2019-04-07T05:15:39.014Z,99234.28
2019-04-07T05:18:06.457Z,99243.55
2019-04-07T05:20:34.383Z,99242.44
2019-04-07T05:23:01.816Z,99248.25
2019-04-07T05:25:29.942Z,99245.25
2019-04-07T05:27:57.125Z,99246.36
2019-04-07T05:30:24.385Z,99243.35
2019-04-07T05:32:52.337Z,99252.16
2019-04-07T05:35:19.699Z,99257.01
2019-04-07T05:37:46.831Z,99251.20
2019-04-07T05:40:15.511Z,99244.14
2019-04-07T05:42:43.344Z,99245.87
2019-04-07T05:45:11.412Z,99255.78
2019-04-07T05:47:43.606Z,99259.48
2019-04-07T05:50:08.524Z,99261.11
2019-04-07T05:52:39.368Z,99265.32
2019-04-07T05:55:05.450Z,99275.23
2019-04-07T05:57:34.899Z,99279.11
2019-04-07T06:00:04.254Z,99280.31
2019-04-07T06:02:33.987Z,99284.17
2019-04-07T06:05:01.252Z,99289.55
2019-04-07T06:07:30.719Z,99291.06
2019-04-07T06:09:57.691Z,99288.48
2019-04-07T06:12:24.843Z,99293.41
2019-04-07T06:14:52.090Z,99288.98
2019-04-07T06:17:19.468Z,99290.83
2019-04-07T06:19:46.630Z,99293.94
2019-04-07T06:22:20.639Z,99286.45
2019-04-07T06:24:47.279Z,99287.33
2019-04-07T06:27:16.902Z,99284.83
2019-04-07T06:29:43.683Z,99283.02
2019-04-07T06:32:11.229Z,99285.09
2019-04-07T06:34:41.104Z,99282.70
2019-04-07T06:37:07.717Z,99282.75
2019-04-07T06:39:35.308Z,99282.39
2019-04-07T06:42:03.414Z,99280.64
2019-04-07T06:44:30.730Z,99286.14
2019-04-07T06:47:09.390Z,99285.00
2019-04-07T06:50:05.770Z,99285.81
2019-04-07T06:52:55.347Z,99289.77
2019-04-07T06:55:40.805Z,99291.22
2019-04-07T06:58:19.886Z,99287.00
2019-04-07T07:01:19.089Z,99288.32
2019-04-07T07:04:24.399Z,99287.98
2019-04-07T07:07:16.758Z,99289.16
2019-04-07T07:10:06.589Z,99282.56
2019-04-07T07:13:09.422Z,99281.77
2019-04-07T07:15:44.900Z,99285.13
2019-04-07T07:18:35.698Z,99288.12
2019-04-07T07:21:19.281Z,99286.34
2019-04-07T07:23:48.946Z,99289.36
2019-04-07T07:26:16.043Z,99284.53
2019-04-07T07:28:44.970Z,99282.93
2019-04-07T07:31:13.246Z,99283.79
2019-04-07T07:33:42.680Z,99289.34
2019-04-07T07:36:09.586Z,99286.64
2019-04-07T07:38:36.815Z,99289.41
2019-04-07T07:41:04.767Z,99285.22
2019-04-07T07:43:32.261Z,99293.80
2019-04-07T07:48:28.346Z,99292.91
2019-04-07T07:50:55.846Z,99290.86
2019-04-07T07:53:26.985Z,99298.47
2019-04-07T07:55:52.128Z,99295.14
2019-04-07T07:58:19.452Z,99296.68
2019-04-07T08:00:47.007Z,99302.74
2019-04-07T08:03:14.689Z,99301.42
2019-04-07T08:05:42.217Z,99301.36
2019-04-07T08:08:10.317Z,99296.60
2019-04-07T08:10:38.204Z,99303.92
2019-04-07T08:13:07.657Z,99297.71
2019-04-07T08:15:34.834Z,99295.62
2019-04-07T08:18:04.782Z,99299.33
2019-04-07T08:20:31.742Z,99302.73
2019-04-07T08:23:00.694Z,99301.45
2019-04-07T08:25:28.201Z,99295.77
2019-04-07T08:27:56.479Z,99298.11
2019-04-07T08:30:24.964Z,99294.73
2019-04-07T08:32:52.347Z,99302.29
2019-04-07T08:35:19.841Z,99303.56
2019-04-07T08:37:48.855Z,99294.78
2019-04-07T08:40:16.560Z,99300.71
2019-04-07T08:42:46.374Z,99304.23
2019-04-07T08:45:13.217Z,99301.42
2019-04-07T08:47:40.585Z,99290.37
2019-04-07T08:50:08.550Z,99303.69
2019-04-07T08:52:38.458Z,99298.17
2019-04-07T08:55:06.015Z,99299.89
2019-04-07T08:57:33.588Z,99300.36
2019-04-07T09:00:01.018Z,99300.39
2019-04-07T09:02:29.353Z,99305.34
2019-04-07T09:04:57.556Z,99301.38
2019-04-07T09:07:25.011Z,99300.23
2019-04-07T09:09:52.275Z,99306.10
2019-04-07T09:12:19.535Z,99300.16
2019-04-07T09:14:46.766Z,99303.77
2019-04-07T09:17:32.182Z,99302.95
2019-04-07T09:20:23.766Z,99300.69
2019-04-07T09:23:10.231Z,99300.37
2019-04-07T09:25:57.367Z,99295.55
2019-04-07T09:28:59.604Z,99294.20
2019-04-07T09:31:58.730Z,99291.50
2019-04-07T09:34:51.369Z,99289.47
2019-04-07T09:37:39.894Z,99288.79
2019-04-07T09:40:33.993Z,99297.94
2019-04-07T09:43:21.109Z,99292.75
2019-04-07T09:46:10.308Z,99282.90
2019-04-07T09:48:44.230Z,99290.46
2019-04-07T09:51:29.862Z,99295.42
2019-04-07T09:54:22.168Z,99292.22
2019-04-07T09:56:57.732Z,99288.94
2019-04-07T09:59:52.479Z,99300.24
2019-04-07T10:02:34.130Z,99292.48
2019-04-07T10:05:21.748Z,99291.51
2019-04-07T10:08:07.304Z,99297.64
2019-04-07T10:11:04.159Z,99296.80
2019-04-07T10:13:49.973Z,99284.45
2019-04-07T10:16:28.480Z,99290.94
2019-04-07T10:19:25.609Z,99287.27
2019-04-07T10:22:12.626Z,99292.34
2019-04-07T10:25:05.494Z,99287.86
2019-04-07T10:28:07.327Z,99293.47
2019-04-07T10:31:02.780Z,99292.63
2019-04-07T10:33:59.307Z,99285.02
2019-04-07T10:36:43.920Z,99294.05
2019-04-07T10:39:17.546Z,99291.93
2019-04-07T10:42:03.429Z,99284.84
2019-04-07T10:44:47.928Z,99283.08
2019-04-07T10:47:25.602Z,99285.58
2019-04-07T10:50:22.153Z,99274.54
2019-04-07T10:53:12.645Z,99274.78
2019-04-07T10:55:45.273Z,99270.36
2019-04-07T10:58:47.272Z,99273.75
2019-04-07T11:01:33.527Z,99278.16
2019-04-07T11:04:09.488Z,99276.41
2019-04-07T11:06:54.948Z,99271.19
2019-04-07T11:09:37.331Z,99277.78
2019-04-07T11:12:27.564Z,99272.34
2019-04-07T11:15:04.704Z,99271.80
2019-04-07T11:17:43.673Z,99262.13
2019-04-07T11:20:31.876Z,99265.38
2019-04-07T11:23:04.664Z,99268.59
2019-04-07T11:25:51.323Z,99265.76
2019-04-07T11:28:28.870Z,99270.81
2019-04-07T11:31:11.277Z,99279.29
2019-04-07T11:34:04.389Z,99265.77
2019-04-07T11:36:57.349Z,99272.81
2019-04-07T11:39:33.782Z,99271.02
2019-04-07T11:42:37.034Z,99273.22
2019-04-07T11:45:25.871Z,99274.45
2019-04-07T11:48:18.714Z,99257.69
2019-04-07T11:51:18.477Z,99270.11
2019-04-07T11:54:11.275Z,99270.70
2019-04-07T11:57:06.899Z,99267.63
2019-04-07T11:59:44.748Z,99266.38
2019-04-07T12:02:42.363Z,99272.30
2019-04-07T12:05:26.826Z,99272.08
2019-04-07T12:08:10.453Z,99260.77
2019-04-07T12:10:58.579Z,99270.97
2019-04-07T12:13:31.298Z,99271.64
2019-04-07T12:16:09.335Z,99259.91
2019-04-07T12:18:55.495Z,99255.80
2019-04-07T12:21:27.977Z,99245.16
2019-04-07T12:24:14.804Z,99250.56
2019-04-07T12:27:13.931Z,99253.73
2019-04-07T12:30:10.085Z,99252.13
2019-04-07T12:32:57.593Z,99252.47
2019-04-07T12:35:53.477Z,99242.87
2019-04-07T12:38:38.152Z,99246.17
2019-04-07T12:41:18.355Z,99249.41
2019-04-07T12:43:50.433Z,99238.84
2019-04-07T12:46:23.058Z,99240.36
2019-04-07T12:48:59.729Z,99238.91
2019-04-07T12:51:38.467Z,99230.55
2019-04-07T12:54:15.715Z,99236.78
2019-04-07T12:57:21.973Z,99243.46
2019-04-07T13:00:06.012Z,99232.19
2019-04-07T13:03:05.955Z,99234.45
2019-04-07T13:06:07.596Z,99229.11
2019-04-07T13:08:43.672Z,99226.15
2019-04-07T13:11:37.298Z,99228.34
2019-04-07T13:14:25.765Z,99224.86
2019-04-07T13:17:16.031Z,99222.22
2019-04-07T13:20:02.326Z,99229.20
2019-04-07T13:22:48.978Z,99225.52
2019-04-07T13:25:31.276Z,99217.20
2019-04-07T13:28:09.661Z,99222.48
2019-04-07T13:31:12.463Z,99221.64
2019-04-07T13:33:46.904Z,99220.86
2019-04-07T13:36:31.349Z,99222.61
2019-04-07T13:39:19.304Z,99217.82
2019-04-07T13:42:05.304Z,99220.19
2019-04-07T13:44:52.612Z,99213.89
2019-04-07T13:47:43.625Z,99219.55
2019-04-07T13:50:40.735Z,99217.92
2019-04-07T13:53:33.673Z,99210.83
2019-04-07T13:56:21.075Z,99215.27
2019-04-07T13:58:59.789Z,99216.53
2019-04-07T14:01:34.675Z,99213.80
2019-04-07T14:04:21.719Z,99210.98
2019-04-07T14:07:03.523Z,99220.78
2019-04-07T14:10:09.111Z,99218.54
2019-04-07T14:13:04.734Z,99223.02
2019-04-07T14:16:01.441Z,99217.34
2019-04-07T14:18:52.292Z,99206.04
2019-04-07T14:21:46.342Z,99208.03
2019-04-07T14:24:42.485Z,99213.84
2019-04-07T14:27:19.583Z,99214.42
2019-04-07T14:30:06.233Z,99210.77
2019-04-07T14:33:05.389Z,99213.78
2019-04-07T14:35:56.607Z,99212.62
2019-04-07T14:38:59.548Z,99217.63
2019-04-07T14:41:45.584Z,99212.19
2019-04-07T14:44:25.765Z,99214.21
2019-04-07T14:47:01.339Z,99215.22
2019-04-07T14:49:52.132Z,99215.08
2019-04-07T14:52:30.762Z,99220.17
2019-04-07T14:55:18.401Z,99219.27
2019-04-07T14:58:16.485Z,99219.63
2019-04-07T15:01:05.533Z,99215.45
2019-04-07T15:03:31.757Z,99222.92
2019-04-07T15:05:59.610Z,99223.99
2019-04-07T15:08:35.587Z,99223.88
2019-04-07T15:11:15.434Z,99222.59
2019-04-07T15:13:45.221Z,99227.38
2019-04-07T15:16:11.341Z,99227.22
2019-04-07T15:18:38.638Z,99228.84
2019-04-07T15:21:06.806Z,99230.37
2019-04-07T15:23:34.210Z,99231.44
2019-04-07T15:26:02.169Z,99234.09
2019-04-07T15:28:31.464Z,99236.17
2019-04-07T15:30:59.261Z,99229.78
2019-04-07T15:33:29.446Z,99234.23
2019-04-07T15:35:55.902Z,99236.89
2019-04-07T15:38:26.707Z,99231.30
2019-04-07T15:40:52.170Z,99231.66
2019-04-07T15:43:19.518Z,99234.31
2019-04-07T15:45:47.045Z,99237.47
2019-04-07T15:48:14.167Z,99245.16
2019-04-07T15:50:41.754Z,99237.56
2019-04-07T15:53:09.285Z,99237.22
2019-04-07T15:55:45.524Z,99240.72
2019-04-07T15:58:05.769Z,99238.86
2019-04-07T16:00:35.184Z,99239.31
2019-04-07T16:03:01.951Z,99248.27
2019-04-07T16:05:30.020Z,99253.52
2019-04-07T16:07:57.810Z,99249.06
2019-04-07T16:10:26.098Z,99255.36
2019-04-07T16:12:55.092Z,99256.41
2019-04-07T16:15:23.139Z,99261.30
2019-04-07T16:17:50.342Z,99262.56
2019-04-07T16:20:24.695Z,99258.25
2019-04-07T16:22:50.478Z,99262.34
2019-04-07T16:25:18.188Z,99265.35
2019-04-07T16:27:45.724Z,99264.09
2019-04-07T16:30:16.081Z,99266.16
2019-04-07T16:32:43.010Z,99265.70
2019-04-07T16:35:15.561Z,99266.38
2019-04-07T16:37:40.275Z,99266.38
2019-04-07T16:40:10.597Z,99272.01
2019-04-07T16:42:37.578Z,99275.73
2019-04-07T16:45:06.069Z,99275.67
2019-04-07T16:47:35.617Z,99280.56
2019-04-07T16:50:03.300Z,99286.03
2019-04-07T16:52:32.923Z,99285.51
2019-04-07T16:54:59.728Z,99286.01
2019-04-07T16:57:29.870Z,99289.17
2019-04-07T16:59:56.453Z,99285.28
2019-04-07T17:02:24.097Z,99284.59
2019-04-07T17:04:51.501Z,99281.66
2019-04-07T17:07:21.123Z,99292.41
2019-04-07T17:09:48.857Z,99296.08
2019-04-07T17:12:16.866Z,99299.95
2019-04-07T17:14:44.824Z,99295.08
2019-04-07T17:17:15.707Z,99299.95
2019-04-07T17:19:41.601Z,99299.95
2019-04-07T17:22:11.856Z,99304.16
2019-04-07T17:24:38.868Z,99301.59
2019-04-07T17:27:09.706Z,99305.04
2019-04-07T17:29:35.543Z,99300.82
2019-04-07T17:32:04.892Z,99304.48
2019-04-07T17:34:35.681Z,99313.34
2019-04-07T17:37:06.069Z,99311.33
2019-04-07T17:39:57.354Z,99308.84
2019-04-07T17:42:30.526Z,99307.56
2019-04-07T17:45:23.654Z,99310.46
2019-04-07T17:48:12.807Z,99315.69
2019-04-07T17:51:06.268Z,99317.83
2019-04-07T17:53:46.601Z,99319.60
2019-04-07T17:56:29.710Z,99325.09
2019-04-07T17:59:14.161Z,99332.95
2019-04-07T18:02:11.909Z,99336.81
2019-04-07T18:05:09.425Z,99338.29
2019-04-07T18:07:59.439Z,99339.46
2019-04-07T18:10:57.862Z,99340.13
2019-04-07T18:13:59.954Z,99344.63
2019-04-07T18:16:48.309Z,99344.42
2019-04-07T18:19:33.884Z,99354.63
2019-04-07T18:22:22.742Z,99359.84
2019-04-07T18:25:02.810Z,99360.66
2019-04-07T18:27:53.330Z,99361.89
2019-04-07T18:30:47.259Z,99362.62
2019-04-07T18:33:33.566Z,99362.00
2019-04-07T18:36:34.727Z,99370.22
2019-04-07T18:39:29.664Z,99375.16
2019-04-07T18:42:07.993Z,99377.50
2019-04-07T18:44:57.476Z,99385.84
2019-04-07T18:48:03.348Z,99385.22
2019-04-07T18:51:00.798Z,99388.64
2019-04-07T18:53:51.963Z,99399.87
2019-04-07T18:56:45.621Z,99399.63
2019-04-07T18:59:41.362Z,99401.21
2019-04-07T19:02:28.908Z,99409.47
2019-04-07T19:05:24.889Z,99410.09
2019-04-07T19:08:21.671Z,99411.11
2019-04-07T19:11:15.979Z,99411.88
2019-04-07T19:14:21.837Z,99415.03
2019-04-07T19:16:36.161Z,99419.19
2019-04-07T19:19:29.970Z,99417.03
2019-04-07T19:22:19.702Z,99416.09
2019-04-07T19:25:21.552Z,99421.63
2019-04-07T19:28:07.803Z,99417.79
2019-04-07T19:31:00.715Z,99423.00
2019-04-07T19:34:01.138Z,99418.48
2019-04-07T19:36:36.898Z,99421.31
2019-04-07T19:39:31.667Z,99425.34
2019-04-07T19:42:17.664Z,99431.13
2019-04-07T19:45:17.592Z,99430.77
2019-04-07T19:47:55.897Z,99431.38
2019-04-07T19:50:43.004Z,99437.72
2019-04-07T19:53:31.017Z,99432.50
2019-04-07T19:56:34.025Z,99434.17
2019-04-07T19:59:12.751Z,99433.11
2019-04-07T20:02:09.587Z,99435.59
2019-04-07T20:04:53.174Z,99438.20
2019-04-07T20:07:35.283Z,99436.09
2019-04-07T20:10:20.622Z,99436.34
2019-04-07T20:12:56.254Z,99432.34
2019-04-07T20:15:41.739Z,99435.63
2019-04-07T20:18:35.422Z,99435.22
2019-04-07T20:21:34.829Z,99434.72
2019-04-07T20:24:13.150Z,99438.08
2019-04-07T20:27:05.242Z,99434.31
2019-04-07T20:29:45.923Z,99434.27
2019-04-07T20:32:55.497Z,99431.83
2019-04-07T20:35:50.070Z,99432.89
2019-04-07T20:38:30.257Z,99433.86
2019-04-07T20:41:12.057Z,99437.66
2019-04-07T20:44:05.495Z,99439.36
2019-04-07T20:46:56.844Z,99436.41
2019-04-07T20:50:10.403Z,99438.08
2019-04-07T20:52:54.424Z,99448.62
2019-04-07T20:55:47.018Z,99448.22
2019-04-07T20:58:44.385Z,99449.69
2019-04-07T21:01:25.593Z,99451.31
2019-04-07T21:04:21.714Z,99451.77
2019-04-07T21:07:08.782Z,99452.70
2019-04-07T21:09:55.359Z,99457.71
2019-04-07T21:12:33.654Z,99460.16
2019-04-07T21:15:25.878Z,99459.34
2019-04-07T21:18:09.461Z,99457.05
2019-04-07T21:20:55.228Z,99458.70
2019-04-07T21:23:42.043Z,99460.41
2019-04-07T21:26:27.773Z,99468.02
2019-04-07T21:29:07.404Z,99465.73
2019-04-07T21:32:09.793Z,99460.99
2019-04-07T21:34:47.227Z,99467.77
2019-04-07T21:37:40.886Z,99478.03
2019-04-07T21:40:21.060Z,99470.03
2019-04-07T21:43:00.454Z,99477.60
2019-04-07T21:45:47.218Z,99469.42
2019-04-07T21:48:37.919Z,99474.36
2019-04-07T21:51:23.650Z,99472.47
2019-04-07T21:54:09.827Z,99474.92
2019-04-07T21:57:04.797Z,99475.61
2019-04-07T22:00:00.914Z,99480.64
2019-04-07T22:02:47.926Z,99487.60
2019-04-07T22:05:27.261Z,99484.16
2019-04-07T22:08:09.551Z,99489.55
2019-04-07T22:10:31.915Z,99485.78
2019-04-07T22:13:02.464Z,99476.50
2019-04-07T22:15:40.595Z,99482.02
2019-04-07T22:17:58.281Z,99481.06
2019-04-07T22:20:25.876Z,99475.70
2019-04-07T22:22:54.330Z,99485.53
2019-04-07T22:25:30.528Z,99483.58
2019-04-07T22:27:59.127Z,99489.29
2019-04-07T22:30:26.597Z,99486.59
2019-04-07T22:32:54.131Z,99490.53
2019-04-07T22:35:21.728Z,99486.78
2019-04-07T22:37:50.263Z,99493.03
2019-04-07T22:40:19.447Z,99492.28
2019-04-07T22:42:47.822Z,99491.78
2019-04-07T22:45:16.131Z,99495.20
2019-04-07T22:47:43.461Z,99499.05
2019-04-07T22:50:11.146Z,99499.55
2019-04-07T22:52:38.416Z,99498.30
2019-04-07T22:55:08.373Z,99512.81
2019-04-07T22:57:35.678Z,99511.44
2019-04-07T23:00:06.371Z,99511.95
2019-04-07T23:02:33.801Z,99521.09
2019-04-07T23:05:01.046Z,99520.78
2019-04-07T23:07:28.442Z,99520.56
2019-04-07T23:09:55.982Z,99509.70
2019-04-07T23:12:23.249Z,99518.64
2019-04-07T23:14:50.731Z,99511.65
2019-04-07T23:17:19.449Z,99517.05
2019-04-07T23:19:56.636Z,99516.95
2019-04-07T23:22:30.488Z,99528.08
2019-04-07T23:24:57.733Z,99521.28
2019-04-07T23:27:25.047Z,99525.69
2019-04-07T23:29:52.773Z,99522.86
2019-04-07T23:32:19.986Z,99514.03
2019-04-07T23:34:47.785Z,99516.03
2019-04-07T23:37:15.215Z,99520.37
2019-04-07T23:39:42.473Z,99513.48
2019-04-07T23:42:09.759Z,99519.26
2019-04-07T23:44:37.341Z,99519.97
2019-04-07T23:47:04.823Z,99519.14
2019-04-07T23:49:32.303Z,99524.00
2019-04-07T23:51:59.552Z,99524.55
2019-04-07T23:54:26.936Z,99525.41
2019-04-07T23:56:54.275Z,99529.86
2019-04-07T23:59:21.542Z,99528.78
